Time;durP1;ratioP1;P1;durP2;ratioP2;P2;SDS_P1;SDS_P2;PMS_P1;PMS_P2;Temp;Humidity;BMP_temperature;BMP_pressure;BME280_temperature;BME280_humidity;BME280_pressure;Samples;Min_cycle;Max_cycle;Signal;HPM_P1;HPM_P2
2021/10/01 00:02:14;;;;;;;;;7.00;5.25;;;;;20.13;42.13;101257.81;6135455;23;45342;-74
2021/10/01 00:04:39;;;;;;;;;5.75;4.50;;;;;20.09;41.50;101256.16;6136016;23;45367;-74
2021/10/01 00:07:05;;;;;;;;;3.75;3.75;;;;;20.16;41.92;101276.34;6187369;23;45396;-74
2021/10/01 00:09:31;;;;;;;;;5.00;4.25;;;;;20.18;41.80;101269.22;6160547;23;45352;-73
2021/10/01 00:11:56;;;;;;;;;6.00;5.00;;;;;20.17;41.52;101264.81;6160271;23;45895;-74
2021/10/01 00:14:23;;;;;;;;;3.00;3.00;;;;;20.09;42.03;101253.53;6187403;23;45373;-73
2021/10/01 00:16:48;;;;;;;;;6.00;4.25;;;;;20.08;41.87;101256.22;6187252;23;45313;-74
2021/10/01 00:19:14;;;;;;;;;4.25;3.75;;;;;20.05;42.02;101247.41;6161237;23;45211;-73
2021/10/01 00:21:40;;;;;;;;;6.25;4.25;;;;;20.04;42.55;101243.00;6160661;23;45162;-74
2021/10/01 00:24:08;;;;;;;;;5.00;4.25;;;;;20.07;42.68;101252.69;6160965;23;46450;-74
2021/10/01 00:26:35;;;;;;;;;4.50;3.00;;;;;20.04;41.88;101235.06;6160031;23;45222;-74
2021/10/01 00:29:00;;;;;;;;;3.25;3.25;;;;;20.09;42.18;101245.56;6136622;23;45369;-74
2021/10/01 00:31:26;;;;;;;;;4.75;4.75;;;;;19.98;41.97;101223.72;6135504;23;50292;-73
2021/10/01 00:33:51;;;;;;;;;3.50;3.50;;;;;20.08;42.04;101246.47;6160500;23;45421;-74
2021/10/01 00:36:16;;;;;;;;;4.00;4.00;;;;;20.08;42.00;101233.22;6186856;23;46990;-74
2021/10/01 00:38:42;;;;;;;;;3.00;3.00;;;;;20.00;42.33;101227.22;6186790;23;47912;-74
2021/10/01 00:41:07;;;;;;;;;3.75;3.75;;;;;20.00;42.29;101227.22;6159540;23;53580;-74
2021/10/01 00:43:33;;;;;;;;;6.00;3.00;;;;;20.05;42.95;101230.63;6186790;23;45929;-73
2021/10/01 00:45:58;;;;;;;;;3.00;2.25;;;;;20.11;41.92;101240.22;6160875;23;45482;-74
2021/10/01 00:48:23;;;;;;;;;4.25;4.25;;;;;20.22;42.54;101251.47;6187251;23;45544;-74
2021/10/01 00:50:49;;;;;;;;;5.00;5.00;;;;;20.24;42.28;101257.59;6186739;23;54394;-74
2021/10/01 00:53:14;;;;;;;;;4.50;3.50;;;;;20.24;42.09;101249.63;6186691;23;55938;-74
2021/10/01 00:55:40;;;;;;;;;3.75;3.75;;;;;20.24;42.31;101241.69;6159495;23;57602;-74
2021/10/01 00:58:05;;;;;;;;;4.50;2.00;;;;;20.25;42.49;101241.69;6187105;23;45182;-73
2021/10/01 01:00:31;;;;;;;;;4.00;4.00;;;;;20.24;42.32;101239.94;6186917;23;47741;-74
2021/10/01 01:02:57;;;;;;;;;3.25;3.25;;;;;20.27;42.48;101237.19;6135452;23;46837;-74
2021/10/01 01:05:28;;;;;;;;;6.25;4.50;;;;;20.16;43.03;101215.38;6135166;23;46031;-74
2021/10/01 01:07:56;;;;;;;;;3.00;3.00;;;;;20.19;42.58;101236.50;6135338;23;45374;-74
2021/10/01 01:10:48;;;;;;;;;0.00;0.00;;;;;20.20;42.31;101230.28;6135908;23;45196;-74
2021/10/01 01:13:24;;;;;;;;;5.00;3.75;;;;;20.19;42.40;101223.25;6160130;23;45344;-73
2021/10/01 01:15:56;;;;;;;;;4.00;3.00;;;;;20.17;43.00;101225.06;6187179;23;45142;-73
2021/10/01 01:18:35;;;;;;;;;3.50;3.00;;;;;20.16;42.86;101217.16;6161424;23;45303;-74
2021/10/01 01:21:01;;;;;;;;;6.50;4.50;;;;;20.08;42.58;101203.22;6137909;23;45239;-74
2021/10/01 01:24:13;;;;;;;;;4.00;4.00;;;;;20.12;42.81;101204.88;6160423;23;46004;-74
2021/10/01 01:26:57;;;;;;;;;5.00;5.00;;;;;20.09;42.30;101204.94;6160012;23;45367;-74
2021/10/01 01:29:24;;;;;;;;;3.00;3.00;;;;;20.04;42.57;101202.38;6187041;23;45475;-73
2021/10/01 01:31:56;;;;;;;;;3.75;3.75;;;;;19.99;42.77;101201.63;6135297;23;45348;-74
2021/10/01 01:34:25;;;;;;;;;4.00;4.00;;;;;19.91;42.54;101188.56;6186824;23;46404;-74
2021/10/01 01:36:51;;;;;;;;;5.50;3.00;;;;;19.94;42.94;101195.56;6135910;23;45205;-74
2021/10/01 01:39:16;;;;;;;;;3.00;3.00;;;;;19.97;43.57;101200.78;6110758;23;45264;-74
2021/10/01 01:41:42;;;;;;;;;4.50;3.75;;;;;20.01;43.06;101199.81;6160167;23;45447;-74
2021/10/01 01:44:09;;;;;;;;;4.25;3.25;;;;;19.98;43.64;101183.97;6186928;23;45283;-74
2021/10/01 01:46:34;;;;;;;;;4.50;3.50;;;;;20.08;43.61;101189.97;6135307;23;45373;-73
2021/10/01 01:49:00;;;;;;;;;5.00;3.00;;;;;20.11;43.25;101182.81;6135573;23;45326;-73
2021/10/01 01:51:25;;;;;;;;;6.75;4.50;;;;;20.05;43.03;101161.72;6135559;23;45332;-74
2021/10/01 01:53:51;;;;;;;;;6.75;4.00;;;;;20.09;42.91;101165.19;6159529;23;61692;-73
2021/10/01 01:56:16;;;;;;;;;4.00;4.00;;;;;20.19;43.38;101174.69;6160177;23;45302;-74
2021/10/01 01:58:42;;;;;;;;;5.75;3.50;;;;;20.19;42.85;101169.38;6160501;23;45413;-74
2021/10/01 02:01:07;;;;;;;;;4.75;3.50;;;;;20.13;43.17;101157.13;6160384;23;45242;-74
2021/10/01 02:03:33;;;;;;;;;4.75;3.50;;;;;20.18;43.23;101152.59;6159879;23;50182;-74
2021/10/01 02:05:59;;;;;;;;;3.00;3.00;;;;;20.26;43.25;101149.78;6160565;23;45390;-73
2021/10/01 02:08:24;;;;;;;;;5.00;4.25;;;;;20.26;43.01;101140.03;6161029;23;50950;-74
2021/10/01 02:10:49;;;;;;;;;4.25;4.25;;;;;20.27;43.02;101135.59;6161320;23;45245;-74
2021/10/01 02:13:15;;;;;;;;;2.50;2.50;;;;;20.27;42.71;101133.81;6186665;23;63436;-74
2021/10/01 02:15:40;;;;;;;;;3.00;3.00;;;;;20.27;43.02;101131.19;6160446;23;61989;-74
2021/10/01 02:18:06;;;;;;;;;2.25;2.25;;;;;20.31;43.00;101139.91;6135900;23;53447;-74
2021/10/01 02:20:33;;;;;;;;;3.50;2.50;;;;;20.30;42.70;101136.38;6187085;23;60807;-74
2021/10/01 02:22:58;;;;;;;;;3.00;3.00;;;;;20.29;43.06;101133.78;6136049;23;48023;-74
2021/10/01 02:28:11;;;;;;;;;3.00;3.00;;;;;20.25;42.65;101133.00;6187553;23;45103;-74
2021/10/01 02:30:37;;;;;;;;;2.00;2.00;;;;;20.16;42.45;101121.75;6187843;23;45282;-73
2021/10/01 02:33:07;;;;;;;;;2.25;2.25;;;;;20.15;42.59;101123.50;6161046;23;45407;-74
2021/10/01 02:35:32;;;;;;;;;3.75;3.00;;;;;20.11;43.22;101123.63;6161248;23;45237;-74
2021/10/01 02:37:58;;;;;;;;;2.50;2.50;;;;;19.98;43.02;101109.78;6187872;23;45206;-74
2021/10/01 02:40:23;;;;;;;;;2.00;2.00;;;;;20.04;42.83;101114.94;6160483;23;48747;-74
2021/10/01 02:42:49;;;;;;;;;3.00;2.25;;;;;19.94;43.60;101102.84;6187265;23;46099;-73
2021/10/01 02:45:14;;;;;;;;;3.00;3.00;;;;;19.97;42.43;101110.69;6161229;23;45273;-73
2021/10/01 02:47:40;;;;;;;;;2.00;2.00;;;;;19.91;43.74;101111.72;6187738;23;45348;-74
2021/10/01 02:50:13;;;;;;;;;1.00;1.00;;;;;19.89;43.13;101099.41;6161592;23;45285;-74
2021/10/01 02:53:03;;;;;;;;;2.00;2.00;;;;;19.83;42.59;101107.53;6161866;23;46123;-74
2021/10/01 02:55:46;;;;;;;;;3.25;2.50;;;;;19.71;44.08;101098.94;6135840;23;45374;-74
2021/10/01 02:58:38;;;;;;;;;4.50;3.00;;;;;19.61;43.65;101078.88;6187230;23;45438;-74
2021/10/01 03:01:06;;;;;;;;;3.00;3.00;;;;;19.66;43.58;101089.38;6187624;23;45468;-74
2021/10/01 03:03:36;;;;;;;;;3.00;3.00;;;;;19.65;43.71;101079.69;6136243;23;46275;-74
2021/10/01 03:06:01;;;;;;;;;3.25;2.25;;;;;19.67;43.38;101084.03;6136530;23;45311;-74
2021/10/01 03:08:29;;;;;;;;;2.00;2.00;;;;;19.64;43.37;101086.75;6187765;23;45095;-74
2021/10/01 03:10:54;;;;;;;;;2.50;2.00;;;;;19.62;43.97;101085.03;6161481;23;45494;-74
2021/10/01 03:13:21;;;;;;;;;2.00;2.00;;;;;19.58;43.36;101075.44;6135415;23;55988;-74
2021/10/01 03:15:48;;;;;;;;;2.00;2.00;;;;;19.60;43.93;101084.19;6161279;23;45368;-74
2021/10/01 03:18:13;;;;;;;;;2.00;2.00;;;;;19.59;43.44;101080.69;6160757;23;45313;-74
2021/10/01 03:20:39;;;;;;;;;2.00;2.00;;;;;19.61;43.71;101076.22;6160728;23;52595;-73
2021/10/01 03:23:06;;;;;;;;;1.75;1.75;;;;;19.55;43.77;101064.88;6110396;23;62989;-74
2021/10/01 03:25:32;;;;;;;;;2.75;2.00;;;;;19.54;43.72;101063.97;6161298;23;45187;-74
2021/10/01 03:27:57;;;;;;;;;5.75;2.00;;;;;19.52;43.34;101059.63;6135289;23;56101;-74
2021/10/01 03:30:22;;;;;;;;;5.50;3.50;;;;;19.53;43.86;101078.13;6160436;23;45227;-74
2021/10/01 03:32:48;;;;;;;;;2.00;2.00;;;;;19.53;44.00;101069.31;6160759;23;45367;-74
2021/10/01 03:35:14;;;;;;;;;2.50;2.50;;;;;19.47;44.07;101057.97;6187377;23;45103;-74
2021/10/01 03:37:40;;;;;;;;;3.00;2.00;;;;;19.43;43.94;101064.22;6161219;23;45341;-74
2021/10/01 03:40:12;;;;;;;;;3.00;2.00;;;;;19.32;44.13;101041.56;6187255;23;45248;-74
2021/10/01 03:42:38;;;;;;;;;3.00;2.00;;;;;19.41;44.89;101063.41;6160657;23;46274;-74
2021/10/01 03:45:05;;;;;;;;;2.00;2.00;;;;;19.40;44.56;101058.16;6160844;23;45201;-74
2021/10/01 03:47:30;;;;;;;;;1.75;1.75;;;;;19.35;43.99;101058.22;6160495;23;45328;-74
2021/10/01 03:49:56;;;;;;;;;3.00;3.00;;;;;19.32;44.41;101060.09;6160859;23;45270;-74
2021/10/01 03:52:21;;;;;;;;;3.00;3.00;;;;;19.29;44.24;101052.22;6187378;23;46263;-74
2021/10/01 03:54:49;;;;;;;;;3.50;2.75;;;;;19.28;44.54;101039.88;6160777;23;47447;-74
2021/10/01 03:57:15;;;;;;;;;2.75;2.75;;;;;19.29;45.37;101057.50;6186998;23;45180;-74
2021/10/01 03:59:40;;;;;;;;;2.50;2.50;;;;;19.27;44.75;101048.72;6187044;23;49465;-74
2021/10/01 04:02:06;;;;;;;;;3.75;2.50;;;;;19.24;44.98;101044.38;6185330;23;47582;-74
2021/10/01 04:04:31;;;;;;;;;3.75;3.75;;;;;19.28;45.45;101050.44;6187085;23;56328;-74
2021/10/01 04:06:57;;;;;;;;;3.00;2.00;;;;;19.23;44.91;101042.63;6187384;23;45098;-74
2021/10/01 04:09:22;;;;;;;;;4.25;2.75;;;;;19.20;44.74;101037.41;6187400;23;45234;-74
2021/10/01 04:11:48;;;;;;;;;2.50;1.50;;;;;19.20;44.71;101030.34;6187145;23;45584;-74
2021/10/01 04:14:13;;;;;;;;;2.00;2.00;;;;;19.15;44.54;101021.63;6187523;23;45279;-74
2021/10/01 04:16:39;;;;;;;;;3.00;3.00;;;;;19.18;45.03;101018.03;6160841;23;45757;-74
2021/10/01 04:19:04;;;;;;;;;3.00;3.00;;;;;19.12;45.04;101015.53;6187435;23;45086;-74
2021/10/01 04:21:30;;;;;;;;;3.25;3.00;;;;;19.18;45.09;101016.25;6187159;23;47214;-74
2021/10/01 04:23:55;;;;;;;;;3.75;2.00;;;;;19.11;44.96;101003.19;6160100;23;58043;-74
2021/10/01 04:26:20;;;;;;;;;2.00;2.00;;;;;19.15;45.19;101021.63;6187186;23;45186;-74
2021/10/01 04:28:46;;;;;;;;;2.75;2.75;;;;;19.16;45.75;101031.31;6186586;23;54947;-75
2021/10/01 04:31:11;;;;;;;;;4.50;3.00;;;;;19.06;44.91;101019.19;6110393;23;45984;-74
2021/10/01 04:33:40;;;;;;;;;2.00;2.00;;;;;19.04;45.24;101010.41;6160100;23;45410;-74
2021/10/01 04:36:05;;;;;;;;;2.25;1.75;;;;;19.10;44.98;101019.97;6187414;23;45320;-74
2021/10/01 04:38:31;;;;;;;;;2.00;2.00;;;;;19.01;45.02;101005.16;6160642;23;45127;-74
2021/10/01 04:40:56;;;;;;;;;2.00;2.00;;;;;19.06;45.20;101016.53;6159872;23;46942;-74
2021/10/01 04:43:22;;;;;;;;;2.75;2.75;;;;;19.06;45.29;101021.81;6186835;23;45147;-74
2021/10/01 04:45:47;;;;;;;;;4.00;2.75;;;;;19.03;45.49;101013.09;6160619;23;46015;-74
2021/10/01 04:48:12;;;;;;;;;4.75;3.25;;;;;19.12;45.66;101020.84;6184774;23;45771;-74
2021/10/01 04:50:38;;;;;;;;;3.50;2.75;;;;;19.09;45.39;101015.59;6160048;23;58212;-75
2021/10/01 04:53:03;;;;;;;;;2.00;2.00;;;;;19.15;45.67;101024.28;6187174;23;45271;-74
2021/10/01 04:55:31;;;;;;;;;3.25;3.00;;;;;19.09;45.07;101013.81;6160924;23;45282;-74
2021/10/01 04:57:57;;;;;;;;;4.75;2.50;;;;;19.05;45.09;101006.00;6186839;23;45469;-74
2021/10/01 05:00:22;;;;;;;;;3.00;3.00;;;;;19.16;47.00;101018.06;6160029;23;48097;-74
2021/10/01 05:02:48;;;;;;;;;2.50;2.25;;;;;19.23;47.47;101005.59;6187198;23;45285;-79
2021/10/01 05:05:13;;;;;;;;;4.00;2.25;;;;;19.39;47.76;101014.06;6187457;23;45341;-77
2021/10/01 05:07:38;;;;;;;;;4.00;2.75;;;;;19.51;47.96;101005.81;6159796;23;61534;-76
2021/10/01 05:10:05;;;;;;;;;2.50;2.50;;;;;19.64;48.59;101012.63;6187942;23;48531;-77
2021/10/01 05:12:30;;;;;;;;;4.00;3.00;;;;;19.77;48.96;101008.75;6135761;23;45875;-76
2021/10/01 05:14:56;;;;;;;;;21.00;15.75;;;;;19.89;50.23;101010.22;6186375;23;54688;-78
2021/10/01 05:17:23;;;;;;;;;10.00;6.50;;;;;19.91;49.55;100989.00;6135547;23;45259;-78
2021/10/01 05:19:49;;;;;;;;;5.50;5.50;;;;;19.99;49.51;100992.34;6161366;23;45587;-77
2021/10/01 05:22:15;;;;;;;;;4.00;4.00;;;;;20.15;49.24;101011.34;6187275;23;45269;-73
2021/10/01 05:24:40;;;;;;;;;4.75;3.50;;;;;20.22;49.28;101004.97;6187320;23;45278;-75
2021/10/01 05:27:06;;;;;;;;;4.25;3.00;;;;;20.29;49.36;101007.41;6186645;23;45304;-73
2021/10/01 05:29:31;;;;;;;;;4.50;4.50;;;;;20.33;49.11;101005.56;6160149;23;45393;-71
2021/10/01 05:31:56;;;;;;;;;3.00;2.25;;;;;20.38;49.04;100993.06;6186975;23;45255;-75
2021/10/01 05:34:22;;;;;;;;;3.00;3.00;;;;;20.46;48.85;101007.00;6160355;23;45239;-74
2021/10/01 05:36:47;;;;;;;;;3.25;3.25;;;;;20.49;49.01;100996.31;6160196;23;50873;-73
2021/10/01 05:39:13;;;;;;;;;4.75;3.50;;;;;20.55;48.84;101003.22;6159145;23;63073;-77
2021/10/01 05:41:38;;;;;;;;;5.75;3.25;;;;;20.53;48.79;100994.44;6159655;23;45285;-76
2021/10/01 05:44:04;;;;;;;;;4.50;4.25;;;;;20.59;48.34;100994.28;6134840;23;56318;-82
2021/10/01 05:46:29;;;;;;;;;3.00;3.00;;;;;20.60;48.53;100991.59;6159929;23;45547;-78
2021/10/01 05:48:58;;;;;;;;;5.00;4.00;;;;;20.61;48.46;100976.53;6110318;23;47199;-80
2021/10/01 05:51:24;;;;;;;;;3.50;3.50;;;;;20.64;48.72;100981.75;6135901;23;45184;-79
2021/10/01 05:56:33;;;;;;;;;3.50;3.50;;;;;20.67;48.51;100986.09;6143015;23;45499;-79
2021/10/01 05:58:59;;;;;;;;;4.00;3.25;;;;;20.65;48.70;100991.44;6159975;23;50637;-76
2021/10/01 06:01:24;;;;;;;;;4.25;3.00;;;;;20.71;48.59;100993.94;6110326;23;45203;-75
2021/10/01 06:03:51;;;;;;;;;3.75;3.00;;;;;20.71;48.58;100993.06;6109757;23;54425;-73
2021/10/01 06:06:17;;;;;;;;;3.50;3.00;;;;;20.70;48.82;100981.59;6135075;23;46114;-75
2021/10/01 06:08:42;;;;;;;;;5.25;4.00;;;;;20.71;48.41;100982.47;6160000;23;46420;-74
2021/10/01 06:11:08;;;;;;;;;5.50;3.00;;;;;20.73;48.36;100986.78;6109298;23;63083;-74
2021/10/01 06:13:34;;;;;;;;;7.00;3.50;;;;;20.72;48.15;100985.06;6134521;23;45376;-75
2021/10/01 06:16:00;;;;;;;;;5.75;3.00;;;;;20.75;48.37;100989.41;6135080;23;45679;-75
2021/10/01 06:18:25;;;;;;;;;4.75;4.50;;;;;20.74;48.41;100982.34;6135104;23;45259;-74
2021/10/01 06:20:51;;;;;;;;;4.75;3.25;;;;;20.73;47.99;100986.78;6134978;23;50038;-75
2021/10/01 06:23:17;;;;;;;;;5.50;3.00;;;;;20.74;48.15;100990.31;6110589;23;45584;-74
2021/10/01 06:25:45;;;;;;;;;5.50;5.50;;;;;20.75;48.25;100987.59;6160369;23;45305;-75
2021/10/01 06:28:13;;;;;;;;;5.50;3.75;;;;;20.71;48.25;100978.03;6134536;23;46939;-75
2021/10/01 06:30:39;;;;;;;;;5.25;3.00;;;;;20.77;47.91;100982.28;6135243;23;45283;-74
2021/10/01 06:33:05;;;;;;;;;4.00;3.00;;;;;20.74;48.05;100969.97;6159910;23;45154;-75
2021/10/01 06:35:31;;;;;;;;;4.00;4.00;;;;;20.77;47.99;100976.97;6134994;23;45114;-75
2021/10/01 06:37:56;;;;;;;;;4.50;2.00;;;;;20.75;47.96;100974.34;6154848;23;64584;-74
2021/10/01 06:40:22;;;;;;;;;4.75;3.75;;;;;20.71;47.51;100958.59;6156602;23;45584;-73
2021/10/01 06:42:52;;;;;;;;;4.75;3.75;;;;;20.77;47.10;100971.69;6110117;23;45200;-74
2021/10/01 06:45:29;;;;;;;;;5.75;4.50;;;;;20.77;47.25;100969.88;6159711;23;45307;-73
2021/10/01 06:50:34;;;;;;;;;4.00;4.00;;;;;20.84;48.21;100973.22;6131819;23;45268;-77
2021/10/01 08:20:10;;;;;;;;;4.00;3.00;;;;;20.92;45.29;100942.00;6159244;23;45365;-75
2021/10/01 08:22:35;;;;;;;;;4.75;3.00;;;;;20.92;45.30;100930.53;6186807;23;45405;-76
2021/10/01 08:25:01;;;;;;;;;4.50;3.00;;;;;20.99;45.26;100934.75;6186211;23;52484;-72
2021/10/01 08:27:26;;;;;;;;;3.75;3.00;;;;;20.95;45.20;100919.84;6159230;23;57736;-75
2021/10/01 08:29:52;;;;;;;;;4.50;3.75;;;;;21.03;45.33;100925.78;6159181;23;52297;-75
2021/10/01 08:32:17;;;;;;;;;4.50;3.50;;;;;21.04;44.83;100928.41;6186797;23;45408;-76
2021/10/01 08:34:45;;;;;;;;;5.00;4.75;;;;;21.00;44.89;100920.56;6135637;23;45314;-76
2021/10/01 08:37:11;;;;;;;;;4.00;3.00;;;;;21.04;44.50;100931.03;6186944;23;45254;-77
2021/10/01 08:39:38;;;;;;;;;5.00;4.00;;;;;21.05;44.51;100921.28;6135576;23;45306;-77
2021/10/01 08:42:04;;;;;;;;;4.50;3.00;;;;;21.04;44.41;100920.44;6160170;23;45497;-76
2021/10/01 08:44:31;;;;;;;;;4.75;3.00;;;;;20.99;44.46;100914.38;6135717;23;46085;-77
2021/10/01 08:46:57;;;;;;;;;3.25;3.25;;;;;21.05;44.77;100927.47;6136287;23;45363;-76
2021/10/01 08:49:23;;;;;;;;;3.00;3.00;;;;;20.97;44.65;100908.25;6110738;23;45293;-76
2021/10/01 08:51:49;;;;;;;;;4.25;3.00;;;;;21.03;44.70;100923.13;6154826;23;45445;-76
2021/10/01 08:54:15;;;;;;;;;3.50;3.00;;;;;21.03;44.15;100923.13;6159832;23;46263;-76
2021/10/01 08:56:40;;;;;;;;;4.00;2.00;;;;;21.01;44.04;100914.34;6149190;23;45210;-77
2021/10/01 08:59:06;;;;;;;;;2.50;2.25;;;;;20.92;44.04;100902.22;6159441;23;46836;-76
2021/10/01 09:01:31;;;;;;;;;3.50;3.00;;;;;20.99;44.05;100909.06;6160477;23;45314;-76
2021/10/01 09:03:57;;;;;;;;;4.00;3.75;;;;;20.95;43.89;100904.78;6160059;23;45321;-75
2021/10/01 09:06:22;;;;;;;;;7.25;4.25;;;;;20.92;43.80;100904.88;6110874;23;45190;-75
2021/10/01 09:08:54;;;;;;;;;2.00;2.00;;;;;20.89;43.51;100899.66;6110756;23;45216;-76
2021/10/01 09:11:29;;;;;;;;;5.50;4.75;;;;;20.88;43.81;100903.25;6109940;23;45362;-74
2021/10/01 09:13:55;;;;;;;;;4.00;4.00;;;;;20.88;43.74;100901.47;6135986;23;45345;-76
2021/10/01 09:16:21;;;;;;;;;4.25;3.50;;;;;20.79;43.67;100887.59;6156110;23;45234;-76
2021/10/01 09:18:47;;;;;;;;;4.00;3.00;;;;;20.85;43.71;100898.03;6182982;23;45170;-75
2021/10/01 09:21:16;;;;;;;;;2.00;2.00;;;;;20.80;43.86;100898.16;6154238;23;45262;-75
2021/10/01 09:23:54;;;;;;;;;2.75;2.75;;;;;20.82;43.91;100896.31;6135154;23;47163;-74
2021/10/01 09:26:20;;;;;;;;;4.00;4.00;;;;;20.76;43.89;100882.38;6186370;23;45234;-74
2021/10/01 09:28:53;;;;;;;;;3.75;3.75;;;;;20.81;43.66;100894.59;6159723;23;45209;-75
2021/10/01 09:31:39;;;;;;;;;6.25;6.25;;;;;20.77;43.68;100895.63;6159774;23;45418;-71
2021/10/01 09:34:08;;;;;;;;;2.25;2.25;;;;;20.72;44.30;100883.41;6183823;23;48256;-74
2021/10/01 09:36:33;;;;;;;;;4.50;3.25;;;;;20.76;44.26;100888.59;6134879;23;45575;-74
2021/10/01 09:38:59;;;;;;;;;2.00;2.00;;;;;20.78;44.40;100886.75;6160275;23;45201;-74
2021/10/01 09:41:25;;;;;;;;;3.00;3.00;;;;;20.74;44.51;100879.78;6186542;23;45187;-73
2021/10/01 09:44:10;;;;;;;;;3.50;3.50;;;;;20.81;44.74;100891.94;6186734;23;46010;-72
2021/10/01 09:46:41;;;;;;;;;5.25;3.25;;;;;20.78;45.16;100884.09;6160137;23;45339;-71
2021/10/01 09:49:07;;;;;;;;;4.75;3.25;;;;;20.77;45.06;100884.16;6161541;23;45146;-74
2021/10/01 09:51:34;;;;;;;;;4.25;3.00;;;;;20.75;45.42;100883.28;6135260;23;45488;-82
2021/10/01 09:54:08;;;;;;;;;5.00;3.00;;;;;20.82;45.86;100887.50;6135652;23;45512;-74
2021/10/01 09:56:33;;;;;;;;;3.25;2.25;;;;;20.80;46.32;100881.38;6160378;23;45231;-73
2021/10/01 09:59:14;;;;;;;;;4.25;3.75;;;;;20.87;46.43;100896.19;6135596;23;45503;-73
2021/10/01 10:01:58;;;;;;;;;3.25;3.25;;;;;20.88;47.05;100893.50;6184849;23;45513;-76
2021/10/01 10:04:24;;;;;;;;;3.25;3.25;;;;;20.90;47.72;100896.09;6186392;23;46001;-76
2021/10/01 10:06:49;;;;;;;;;3.50;3.25;;;;;20.87;48.81;100890.91;6134758;23;45399;-75
2021/10/01 10:09:14;;;;;;;;;3.00;2.75;;;;;20.94;49.74;100892.44;6160348;23;45261;-74
2021/10/01 10:11:41;;;;;;;;;3.50;3.25;;;;;20.95;49.48;100888.88;6153757;23;45312;-77
2021/10/01 10:14:11;;;;;;;;;2.00;2.00;;;;;20.94;49.35;100879.19;6134438;23;47102;-77
2021/10/01 10:16:37;;;;;;;;;3.25;3.00;;;;;20.94;48.37;100879.19;6149085;23;45474;-77
2021/10/01 10:19:23;;;;;;;;;3.00;2.00;;;;;20.94;48.52;100881.84;6134388;23;45271;-77
2021/10/01 10:21:49;;;;;;;;;3.00;3.00;;;;;20.93;48.31;100879.22;6158371;23;45491;-78
2021/10/01 10:24:14;;;;;;;;;2.75;2.00;;;;;20.94;48.27;100879.19;6160118;23;46387;-77
2021/10/01 10:26:39;;;;;;;;;3.25;3.00;;;;;20.94;47.91;100880.94;6109049;23;46447;-77
2021/10/01 10:29:06;;;;;;;;;5.50;3.00;;;;;20.96;48.06;100887.09;6136390;23;45313;-77
2021/10/01 10:31:33;;;;;;;;;2.00;2.00;;;;;20.95;48.14;100883.56;6135505;23;45198;-78
2021/10/01 10:33:59;;;;;;;;;3.75;2.00;;;;;20.96;48.44;100885.31;6111554;23;45859;-77
2021/10/01 10:36:27;;;;;;;;;4.00;2.75;;;;;20.98;48.57;100877.28;6136762;23;45243;-78
2021/10/01 10:38:54;;;;;;;;;2.00;2.00;;;;;20.98;48.95;100879.94;6184613;23;45343;-76
2021/10/01 10:41:27;;;;;;;;;5.75;2.00;;;;;20.97;49.20;100871.13;6160517;23;45671;-76
2021/10/01 10:43:53;;;;;;;;;4.50;4.50;;;;;21.05;49.17;100881.50;6161021;23;45519;-75
2021/10/01 10:46:36;;;;;;;;;2.25;2.00;;;;;21.09;49.31;100867.19;6187542;23;45309;-73
2021/10/01 10:49:17;;;;;;;;;4.50;3.25;;;;;21.14;50.14;100852.00;6185924;23;45231;-77
2021/10/01 10:51:57;;;;;;;;;3.00;3.00;;;;;21.37;49.68;100848.59;6187493;23;45211;-76
2021/10/01 10:54:27;;;;;;;;;3.75;3.50;;;;;21.57;49.55;100843.50;6188586;23;46241;-75
2021/10/01 10:57:17;;;;;;;;;2.50;2.50;;;;;21.67;49.83;100844.91;6111416;23;45228;-75
2021/10/01 10:59:43;;;;;;;;;2.00;2.00;;;;;21.72;49.63;100845.63;6185877;23;45396;-75
2021/10/01 11:02:19;;;;;;;;;2.00;1.00;;;;;21.76;49.79;100843.72;6160119;23;45335;-76
2021/10/01 11:04:49;;;;;;;;;3.00;3.00;;;;;21.80;49.86;100849.78;6187557;23;45377;-75
2021/10/01 11:08:02;;;;;;;;;2.00;2.00;;;;;21.82;49.45;100847.97;6136184;23;45268;-74
2021/10/01 11:10:40;;;;;;;;;3.00;3.00;;;;;21.84;49.73;100840.78;6037180;23;45270;-74
2021/10/01 11:13:21;;;;;;;;;4.00;2.75;;;;;21.85;49.75;100837.22;6037984;23;45440;-73
2021/10/01 11:16:15;;;;;;;;;2.75;2.00;;;;;21.85;48.99;100840.72;6144076;23;46097;-73
2021/10/01 11:18:46;;;;;;;;;2.50;1.75;;;;;21.82;49.28;100832.00;6187162;23;45185;-72
2021/10/01 11:21:42;;;;;;;;;3.00;3.00;;;;;21.78;48.79;100825.94;6187958;23;45299;-72
2021/10/01 11:24:18;;;;;;;;;2.25;2.00;;;;;21.75;48.89;100817.22;6160557;23;45358;-73
2021/10/01 11:26:57;;;;;;;;;2.00;2.00;;;;;21.73;48.79;100820.78;6135030;23;47258;-74
2021/10/01 11:29:33;;;;;;;;;4.00;3.00;;;;;21.70;48.86;100822.66;6187323;23;45179;-74
2021/10/01 11:32:04;;;;;;;;;4.00;2.00;;;;;21.67;48.44;100802.41;6161084;23;45234;-73
2021/10/01 11:34:42;;;;;;;;;3.50;2.75;;;;;21.65;48.47;100812.22;6160423;23;45492;-72
2021/10/01 11:37:23;;;;;;;;;2.50;2.50;;;;;21.62;48.85;100814.09;6187048;23;45356;-73
2021/10/01 11:39:50;;;;;;;;;4.75;3.75;;;;;21.60;48.16;100800.03;6134349;23;45703;-73
2021/10/01 11:42:37;;;;;;;;;3.00;3.00;;;;;21.58;48.63;100794.75;6153596;23;45455;-73
2021/10/01 11:45:34;;;;;;;;;2.75;2.00;;;;;21.58;48.84;100801.88;6159416;23;45380;-73
2021/10/01 11:48:03;;;;;;;;;3.75;3.00;;;;;21.56;48.95;100807.25;6148371;23;48515;-74
2021/10/01 11:50:49;;;;;;;;;3.00;3.00;;;;;21.53;49.21;100803.81;6187156;23;45359;-75
2021/10/01 11:53:25;;;;;;;;;2.25;2.00;;;;;21.54;48.66;100795.78;6135926;23;45289;-75
2021/10/01 11:55:50;;;;;;;;;6.50;4.00;;;;;21.54;48.82;100795.78;6160224;23;45270;-75
2021/10/01 11:58:17;;;;;;;;;2.25;2.25;;;;;21.55;49.17;100780.75;6186930;23;45312;-74
2021/10/01 12:00:42;;;;;;;;;4.75;3.00;;;;;21.56;49.38;100787.78;6135792;23;45176;-76
2021/10/01 12:03:11;;;;;;;;;3.50;3.50;;;;;21.58;51.67;100781.50;6161093;23;45224;-74
2021/10/01 12:05:37;;;;;;;;;7.50;4.00;;;;;21.62;49.95;100772.47;6186981;23;45194;-73
2021/10/01 12:08:07;;;;;;;;;4.00;4.00;;;;;21.63;49.79;100776.00;6186529;23;46042;-74
2021/10/01 12:10:37;;;;;;;;;3.00;2.50;;;;;21.70;49.84;100780.16;6135121;23;45259;-74
2021/10/01 12:13:05;;;;;;;;;4.00;2.00;;;;;21.74;49.70;100771.19;6130448;23;45399;-75
2021/10/01 12:15:57;;;;;;;;;3.00;2.00;;;;;21.79;49.69;100769.22;6185955;23;45236;-72
2021/10/01 12:18:37;;;;;;;;;3.50;3.00;;;;;21.81;49.53;100761.22;6170150;23;45919;-73
2021/10/01 12:21:14;;;;;;;;;1.75;1.75;;;;;21.84;49.56;100756.63;6160891;23;45243;-72
2021/10/01 12:24:04;;;;;;;;;3.00;2.00;;;;;21.86;49.18;100767.19;6110838;23;45298;-72
2021/10/01 12:26:29;;;;;;;;;2.00;2.00;;;;;21.87;49.29;100767.13;6159544;23;45262;-72
2021/10/01 12:29:12;;;;;;;;;3.00;2.00;;;;;21.78;49.59;100751.53;6184884;23;47427;-72
2021/10/01 12:32:03;;;;;;;;;3.00;3.00;;;;;21.88;49.58;100758.25;6136832;23;45279;-72
2021/10/01 12:34:41;;;;;;;;;5.00;3.00;;;;;21.86;48.89;100749.47;6160918;23;45303;-73
2021/10/01 12:37:08;;;;;;;;;5.25;3.00;;;;;21.86;49.39;100749.47;6137821;23;45397;-73
2021/10/01 12:39:35;;;;;;;;;2.50;2.00;;;;;21.87;49.02;100756.50;6109783;23;47450;-74
2021/10/01 12:42:06;;;;;;;;;2.00;2.00;;;;;21.81;49.35;100732.84;6160436;23;45143;-73
2021/10/01 12:44:36;;;;;;;;;5.00;2.00;;;;;21.86;49.22;100733.53;6187324;23;45307;-73
2021/10/01 12:47:15;;;;;;;;;4.00;2.50;;;;;21.88;49.52;100742.28;6161108;23;45182;-72
2021/10/01 12:49:41;;;;;;;;;4.00;2.00;;;;;21.87;49.40;100727.28;6159891;23;45242;-74
2021/10/01 12:52:11;;;;;;;;;2.00;2.00;;;;;21.87;49.24;100721.09;6187190;23;45412;-74
2021/10/01 12:54:47;;;;;;;;;2.00;2.00;;;;;21.85;49.41;100721.16;6187497;23;45382;-73
2021/10/01 12:57:15;;;;;;;;;4.50;3.25;;;;;21.84;49.44;100714.13;6110316;23;45432;-73
2021/10/01 12:59:41;;;;;;;;;4.00;3.00;;;;;21.85;49.16;100710.53;6153134;23;46321;-73
2021/10/01 13:02:14;;;;;;;;;3.50;3.00;;;;;21.83;49.24;100716.84;6131989;23;45655;-74
2021/10/01 13:04:44;;;;;;;;;3.00;1.00;;;;;21.79;49.31;100702.78;6137905;23;45184;-73
2021/10/01 13:07:26;;;;;;;;;4.00;2.00;;;;;21.80;50.01;100706.31;6135595;23;45437;-73
2021/10/01 13:09:53;;;;;;;;;2.00;2.00;;;;;21.76;50.23;100700.25;6135548;23;45471;-73